createdAt,value
2018-06-12T00:02:09.240Z,20.90
2018-06-12T00:05:42.501Z,20.90
2018-06-12T00:09:15.765Z,20.90
2018-06-12T00:12:49.033Z,20.90
2018-06-12T00:16:22.279Z,20.90
2018-06-12T00:19:55.525Z,20.90
2018-06-12T00:23:28.789Z,20.90
2018-06-12T00:27:02.020Z,20.90
2018-06-12T00:30:35.276Z,20.90
2018-06-12T00:34:08.516Z,21.00
2018-06-12T00:37:41.770Z,21.00
2018-06-12T00:41:15.048Z,21.00
2018-06-12T00:44:48.301Z,21.00
2018-06-12T00:48:21.554Z,21.00
2018-06-12T00:51:54.787Z,21.00
2018-06-12T00:55:28.055Z,20.90
2018-06-12T01:02:34.331Z,20.80
2018-06-12T01:06:07.579Z,20.80
2018-06-12T01:09:40.837Z,20.80
2018-06-12T01:13:14.119Z,20.80
2018-06-12T01:16:47.376Z,20.80
2018-06-12T01:20:20.612Z,20.70
2018-06-12T01:23:53.861Z,20.70
2018-06-12T01:27:27.111Z,20.70
2018-06-12T01:31:00.360Z,20.70
2018-06-12T01:34:33.628Z,20.70
2018-06-12T01:38:06.881Z,20.70
2018-06-12T01:41:40.132Z,20.60
2018-06-12T01:45:13.384Z,20.60
2018-06-12T01:48:46.662Z,20.60
2018-06-12T01:52:19.913Z,20.60
2018-06-12T01:55:53.168Z,20.60
2018-06-12T01:59:26.420Z,20.50
2018-06-12T02:02:59.652Z,20.40
2018-06-12T02:06:32.876Z,20.40
2018-06-12T02:10:06.136Z,20.40
2018-06-12T02:17:12.419Z,20.40
2018-06-12T02:20:45.663Z,20.40
2018-06-12T02:24:18.895Z,20.40
2018-06-12T02:27:52.152Z,20.40
2018-06-12T02:31:25.399Z,20.40
2018-06-12T02:34:58.640Z,20.50
2018-06-12T02:38:31.900Z,20.50
2018-06-12T02:42:05.207Z,20.60
2018-06-12T02:45:38.496Z,20.60
2018-06-12T02:49:11.748Z,20.60
2018-06-12T02:52:44.988Z,20.70
2018-06-12T02:56:18.226Z,20.70
2018-06-12T03:03:24.581Z,20.80
2018-06-12T03:06:57.834Z,20.70
2018-06-12T03:10:31.100Z,20.70
2018-06-12T03:14:04.353Z,20.60
2018-06-12T03:17:37.587Z,20.60
2018-06-12T03:21:10.835Z,20.50
2018-06-12T03:24:44.109Z,20.50
2018-06-12T03:28:17.355Z,20.30
2018-06-12T03:31:50.605Z,20.20
2018-06-12T03:35:23.868Z,20.10
2018-06-12T03:38:57.119Z,20.10
2018-06-12T03:42:30.492Z,20.10
2018-06-12T03:46:03.719Z,20.10
2018-06-12T03:49:36.964Z,20.10
2018-06-12T03:53:10.199Z,20.00
2018-06-12T03:56:43.439Z,20.00
2018-06-12T04:00:16.721Z,19.90
2018-06-12T04:10:55.973Z,19.80
2018-06-12T04:14:29.248Z,19.80
2018-06-12T04:18:02.506Z,19.80
2018-06-12T04:21:36.114Z,19.70
2018-06-12T04:25:09.369Z,19.60
2018-06-12T04:28:42.620Z,19.50
2018-06-12T04:32:15.919Z,19.50
2018-06-12T04:39:22.152Z,19.40
2018-06-12T04:42:55.393Z,19.50
2018-06-12T04:46:28.631Z,19.50
2018-06-12T04:53:34.979Z,19.70
2018-06-12T04:57:08.228Z,19.90
2018-06-12T05:00:41.472Z,20.00
2018-06-12T05:04:14.716Z,20.10
2018-06-12T05:07:47.965Z,20.30
2018-06-12T05:11:21.202Z,20.40
2018-06-12T05:14:54.435Z,20.50
2018-06-12T05:18:27.663Z,20.40
2018-06-12T05:22:00.987Z,20.40
2018-06-12T05:25:34.336Z,20.30
2018-06-12T05:29:07.532Z,20.30
2018-06-12T05:32:40.758Z,20.20
2018-06-12T05:36:14.071Z,20.20
2018-06-12T05:39:47.311Z,20.20
2018-06-12T05:43:20.648Z,20.20
2018-06-12T05:46:54.043Z,20.20
2018-06-12T05:50:27.219Z,20.20
2018-06-12T05:54:00.492Z,20.30
2018-06-12T05:57:33.776Z,20.40
2018-06-12T06:01:07.040Z,20.60
2018-06-12T06:04:40.263Z,20.70
2018-06-12T06:08:13.507Z,20.80
2018-06-12T06:11:46.796Z,20.70
2018-06-12T06:15:20.484Z,20.70
2018-06-12T06:18:53.807Z,20.90
2018-06-12T06:22:27.119Z,21.00
2018-06-12T06:26:00.333Z,21.00
2018-06-12T06:33:06.591Z,21.20
2018-06-12T06:36:39.819Z,21.50
2018-06-12T06:40:13.060Z,21.80
2018-06-12T06:43:46.287Z,21.90
2018-06-12T06:47:19.533Z,21.90
2018-06-12T06:50:52.775Z,21.80
2018-06-12T06:54:26.011Z,21.80
2018-06-12T06:57:59.267Z,21.80
2018-06-12T07:01:32.496Z,21.90
2018-06-12T07:05:05.772Z,21.90
2018-06-12T07:08:39.084Z,21.90
2018-06-12T07:12:12.344Z,21.90
2018-06-12T07:15:45.580Z,21.90
2018-06-12T07:19:18.852Z,22.00
2018-06-12T07:22:52.120Z,21.90
2018-06-12T07:26:25.434Z,22.00
2018-06-12T07:29:58.681Z,22.10
2018-06-12T07:33:31.903Z,22.20
2018-06-12T07:37:05.204Z,22.20
2018-06-12T07:40:38.440Z,22.30
2018-06-12T07:44:11.674Z,22.30
2018-06-12T07:47:44.927Z,22.50
2018-06-12T07:51:18.177Z,22.50
2018-06-12T07:54:51.422Z,22.60
2018-06-12T08:01:57.678Z,22.70
2018-06-12T08:05:30.976Z,22.70
2018-06-12T08:09:06.005Z,22.80
2018-06-12T08:12:39.266Z,22.90
2018-06-12T08:19:45.517Z,23.00
2018-06-12T08:23:18.778Z,22.90
2018-06-12T08:26:52.137Z,22.90
2018-06-12T08:30:25.603Z,22.90
2018-06-12T08:33:58.624Z,23.00
2018-06-12T08:37:31.884Z,23.00
2018-06-12T08:41:05.144Z,23.10
2018-06-12T08:44:38.399Z,23.20
2018-06-12T08:48:11.628Z,23.20
2018-06-12T08:51:44.868Z,23.30
2018-06-12T08:55:18.112Z,23.30
2018-06-12T08:58:51.381Z,23.40
2018-06-12T09:02:24.660Z,23.40
2018-06-12T09:09:30.872Z,23.60
2018-06-12T09:13:04.104Z,23.60
2018-06-12T09:20:10.355Z,23.70
2018-06-12T09:23:43.587Z,24.00
2018-06-12T09:27:16.823Z,24.40
2018-06-12T09:30:50.062Z,24.80
2018-06-12T09:34:23.296Z,24.80
2018-06-12T09:37:56.526Z,24.80
2018-06-12T09:41:29.807Z,24.80
2018-06-12T09:45:03.041Z,24.90
2018-06-12T09:48:36.289Z,25.10
2018-06-12T09:52:09.511Z,25.10
2018-06-12T09:55:42.761Z,25.20
2018-06-12T09:59:15.991Z,25.40
2018-06-12T10:02:49.275Z,25.50
2018-06-12T10:06:22.543Z,25.70
2018-06-12T10:13:28.792Z,26.00
2018-06-12T10:17:02.109Z,26.10
2018-06-12T10:20:35.544Z,26.30
2018-06-12T10:24:08.800Z,26.50
2018-06-12T10:27:42.051Z,26.30
2018-06-12T10:31:15.303Z,26.20
2018-06-12T10:34:48.676Z,26.20
2018-06-12T10:38:21.916Z,26.20
2018-06-12T10:41:55.172Z,26.30
2018-06-12T10:45:28.483Z,26.30
2018-06-12T10:49:01.736Z,26.30
2018-06-12T10:56:07.996Z,26.20
2018-06-12T10:59:41.264Z,26.40
2018-06-12T11:03:14.500Z,26.50
2018-06-12T11:06:47.723Z,26.40
2018-06-12T11:13:54.003Z,26.30
2018-06-12T11:17:27.250Z,26.30
2018-06-12T11:21:00.476Z,26.20
2018-06-12T11:24:33.744Z,26.10
2018-06-12T11:28:07.000Z,25.90
2018-06-12T11:31:40.245Z,25.80
2018-06-12T11:35:13.490Z,25.70
2018-06-12T11:38:46.739Z,25.60
2018-06-12T11:42:19.971Z,25.60
2018-06-12T11:45:53.210Z,25.50
2018-06-12T11:49:26.499Z,25.40
2018-06-12T11:52:59.765Z,25.40
2018-06-12T11:56:33.009Z,25.40
2018-06-12T12:00:06.655Z,25.40
2018-06-12T12:03:39.923Z,25.50
2018-06-12T12:07:13.168Z,25.60
2018-06-12T12:10:46.401Z,25.60
2018-06-12T12:14:19.662Z,25.60
2018-06-12T12:17:52.903Z,25.50
2018-06-12T12:21:26.196Z,25.50
2018-06-12T12:24:59.430Z,25.50
2018-06-12T12:28:32.716Z,25.60
2018-06-12T12:32:05.987Z,25.70
2018-06-12T12:35:39.227Z,25.80
2018-06-12T12:39:12.483Z,25.90
2018-06-12T12:42:45.759Z,26.10
2018-06-12T12:46:19.007Z,26.10
2018-06-12T12:49:52.227Z,26.20
2018-06-12T12:53:25.542Z,26.30
2018-06-12T12:56:58.803Z,26.40
2018-06-12T13:00:32.090Z,26.50
2018-06-12T13:04:05.369Z,26.70
2018-06-12T13:07:38.612Z,26.80
2018-06-12T13:11:12.768Z,26.80
2018-06-12T13:18:19.015Z,26.70
2018-06-12T13:21:52.293Z,26.70
2018-06-12T13:25:25.617Z,26.80
2018-06-12T13:28:58.878Z,26.90
2018-06-12T13:32:32.160Z,27.00
2018-06-12T13:36:05.427Z,26.90
2018-06-12T13:39:38.664Z,27.00
2018-06-12T13:43:11.920Z,27.10
2018-06-12T13:46:45.189Z,27.10
2018-06-12T13:50:18.436Z,27.10
2018-06-12T13:57:24.711Z,27.00
2018-06-12T14:00:57.996Z,26.90
2018-06-12T14:04:31.245Z,26.90
2018-06-12T14:11:37.564Z,27.00
2018-06-12T14:15:10.823Z,26.90
2018-06-12T14:18:44.111Z,26.80
2018-06-12T14:22:17.376Z,26.80
2018-06-12T14:25:50.667Z,27.00
2018-06-12T14:29:24.139Z,27.30
2018-06-12T14:40:03.363Z,27.00
2018-06-12T14:43:36.595Z,26.70
2018-06-12T14:47:09.855Z,26.50
2018-06-12T14:50:43.096Z,26.30
2018-06-12T14:54:16.353Z,26.20
2018-06-12T14:57:49.603Z,26.30
2018-06-12T15:01:22.859Z,26.80
2018-06-12T15:04:56.101Z,26.90
2018-06-12T15:08:29.392Z,26.90
2018-06-12T15:12:02.628Z,27.00
2018-06-12T15:15:35.888Z,27.30
2018-06-12T15:22:42.140Z,28.00
2018-06-12T15:26:15.441Z,28.10
2018-06-12T15:29:48.683Z,28.20
2018-06-12T15:33:21.950Z,27.90
2018-06-12T15:36:55.221Z,27.60
2018-06-12T15:40:28.485Z,27.30
2018-06-12T15:44:01.771Z,26.90
2018-06-12T15:47:34.986Z,26.70
2018-06-12T15:51:08.281Z,26.50
2018-06-12T15:54:41.528Z,26.20
2018-06-12T15:58:14.799Z,25.90
2018-06-12T16:01:48.045Z,25.60
2018-06-12T16:05:21.412Z,25.40
2018-06-12T16:08:54.655Z,25.20
2018-06-12T16:12:27.913Z,25.00
2018-06-12T16:16:01.236Z,24.90
2018-06-12T16:19:34.587Z,24.90
2018-06-12T16:23:07.840Z,24.80
2018-06-12T16:26:41.319Z,24.80
2018-06-12T16:30:14.798Z,24.80
2018-06-12T16:33:48.040Z,24.70
2018-06-12T16:37:21.299Z,24.70
2018-06-12T16:40:55.302Z,24.70
2018-06-12T16:44:28.599Z,24.70
2018-06-12T16:48:01.845Z,24.60
2018-06-12T16:51:35.101Z,24.60
2018-06-12T16:55:08.339Z,24.70
2018-06-12T16:58:41.609Z,24.70
2018-06-12T17:02:14.921Z,24.80
2018-06-12T17:05:48.223Z,24.70
2018-06-12T17:09:21.483Z,24.70
2018-06-12T17:12:54.723Z,24.50
2018-06-12T17:16:28.063Z,24.40
2018-06-12T17:20:01.334Z,24.30
2018-06-12T17:23:34.605Z,24.30
2018-06-12T17:27:07.903Z,24.30
2018-06-12T17:30:41.277Z,24.20
2018-06-12T17:34:14.544Z,24.10
2018-06-12T17:37:47.780Z,24.00
2018-06-12T17:41:21.033Z,23.90
2018-06-12T17:44:54.328Z,23.70
2018-06-12T17:48:27.591Z,23.60
2018-06-12T17:52:00.836Z,23.50
2018-06-12T17:55:34.175Z,23.50
2018-06-12T17:59:07.432Z,23.50
2018-06-12T18:02:40.699Z,23.40
2018-06-12T18:06:13.945Z,23.30
2018-06-12T18:09:47.210Z,23.30
2018-06-12T18:13:20.457Z,23.20
2018-06-12T18:16:53.716Z,23.10
2018-06-12T18:20:26.972Z,23.00
2018-06-12T18:27:33.444Z,22.90
2018-06-12T18:31:07.269Z,22.80
2018-06-12T18:34:40.552Z,22.80
2018-06-12T18:38:13.808Z,22.70
2018-06-12T18:41:47.058Z,22.70
2018-06-12T18:45:20.319Z,22.60
2018-06-12T18:48:53.565Z,22.50
2018-06-12T18:52:26.797Z,22.40
2018-06-12T18:56:00.044Z,22.40
2018-06-12T18:59:33.273Z,22.30
2018-06-12T19:03:06.538Z,22.30
2018-06-12T19:06:39.804Z,22.20
2018-06-12T19:10:13.025Z,22.10
2018-06-12T19:13:46.344Z,22.10
2018-06-12T19:17:19.585Z,22.10
2018-06-12T19:24:25.838Z,22.10
2018-06-12T19:27:59.915Z,22.10
2018-06-12T19:31:33.826Z,22.10
2018-06-12T19:35:07.329Z,22.00
2018-06-12T19:38:40.599Z,22.00
2018-06-12T19:42:13.815Z,21.90
2018-06-12T19:49:20.049Z,21.90
2018-06-12T19:52:53.439Z,21.70
2018-06-12T19:56:26.671Z,21.70
2018-06-12T19:59:59.933Z,21.60
2018-06-12T20:03:33.216Z,21.60
2018-06-12T20:07:06.471Z,21.50
2018-06-12T20:10:39.699Z,21.40
2018-06-12T20:14:12.969Z,21.30
2018-06-12T20:17:46.203Z,21.20
2018-06-12T20:21:19.448Z,21.20
2018-06-12T20:24:52.682Z,21.10
2018-06-12T20:28:25.950Z,21.10
2018-06-12T20:31:59.235Z,21.10
2018-06-12T20:35:32.446Z,21.10
2018-06-12T20:39:07.774Z,21.20
2018-06-12T20:42:41.006Z,21.20
2018-06-12T20:46:14.257Z,21.20
2018-06-12T20:53:20.483Z,21.20
2018-06-12T20:56:53.723Z,21.20
2018-06-12T21:00:26.987Z,21.20
2018-06-12T21:04:00.268Z,21.10
2018-06-12T21:07:33.642Z,21.10
2018-06-12T21:11:06.907Z,21.10
2018-06-12T21:14:40.155Z,21.10
2018-06-12T21:18:13.530Z,20.90
2018-06-12T21:21:46.869Z,20.80
2018-06-12T21:25:20.100Z,20.70
2018-06-12T21:28:53.663Z,20.60
2018-06-12T21:35:59.876Z,20.30
2018-06-12T21:39:33.111Z,20.20
2018-06-12T21:43:06.364Z,20.10
2018-06-12T21:46:39.589Z,20.00
2018-06-12T21:50:12.848Z,19.90
2018-06-12T21:53:46.126Z,19.80
2018-06-12T21:57:19.332Z,19.70
2018-06-12T22:00:52.552Z,19.60
2018-06-12T22:07:58.801Z,19.50
2018-06-12T22:11:32.024Z,19.50
2018-06-12T22:15:05.290Z,19.50
2018-06-12T22:18:38.550Z,19.50
2018-06-12T22:22:11.796Z,19.50
2018-06-12T22:25:45.619Z,19.50
2018-06-12T22:29:18.920Z,19.50
2018-06-12T22:32:52.187Z,19.50
2018-06-12T22:36:25.420Z,19.50
2018-06-12T22:39:58.664Z,19.50
2018-06-12T22:43:31.899Z,19.50
2018-06-12T22:47:05.159Z,19.50
2018-06-12T22:54:11.442Z,19.50
2018-06-12T22:57:44.671Z,19.50
2018-06-12T23:01:17.919Z,19.50
2018-06-12T23:04:51.178Z,19.50
2018-06-12T23:08:24.456Z,19.50
2018-06-12T23:11:57.699Z,19.50
2018-06-12T23:15:30.932Z,19.50
2018-06-12T23:19:04.164Z,19.60
2018-06-12T23:22:37.423Z,19.60
2018-06-12T23:26:10.704Z,19.60
2018-06-12T23:29:43.946Z,19.60
2018-06-12T23:40:23.221Z,19.50
2018-06-12T23:43:56.448Z,19.50
2018-06-12T23:47:29.694Z,19.50
2018-06-12T23:51:02.950Z,19.50
2018-06-12T23:54:36.209Z,19.40
2018-06-12T23:58:09.447Z,19.40
